sensor_id;sensor_type;location;lat;lon;timestamp;pressure;altitude;pressure_sealevel;temperature;humidity
6829;BME280;17930;48.592;8.868;2022-09-29T00:01:12;95285.91;;;6.75;100.00
6829;BME280;17930;48.592;8.868;2022-09-29T00:03:40;95283.84;;;6.77;100.00
6829;BME280;17930;48.592;8.868;2022-09-29T00:06:11;95280.75;;;6.75;100.00
6829;BME280;17930;48.592;8.868;2022-09-29T00:08:41;95276.63;;;6.74;100.00
6829;BME280;17930;48.592;8.868;2022-09-29T00:11:08;95271.34;;;6.65;100.00
6829;BME280;17930;48.592;8.868;2022-09-29T00:13:35;95275.16;;;6.68;100.00
6829;BME280;17930;48.592;8.868;2022-09-29T00:16:03;95277.97;;;6.71;100.00
6829;BME280;17930;48.592;8.868;2022-09-29T00:18:31;95269.44;;;6.71;100.00
6829;BME280;17930;48.592;8.868;2022-09-29T00:21:00;95271.94;;;6.76;100.00
6829;BME280;17930;48.592;8.868;2022-09-29T00:23:28;95271.75;;;6.86;100.00
6829;BME280;17930;48.592;8.868;2022-09-29T00:26:02;95271.41;;;7.06;100.00
6829;BME280;17930;48.592;8.868;2022-09-29T00:28:29;95277.25;;;6.98;100.00
6829;BME280;17930;48.592;8.868;2022-09-29T00:30:57;95271.13;;;6.94;100.00
6829;BME280;17930;48.592;8.868;2022-09-29T00:33:24;95276.88;;;6.91;100.00
6829;BME280;17930;48.592;8.868;2022-09-29T00:36:02;95279.06;;;6.84;100.00
6829;BME280;17930;48.592;8.868;2022-09-29T00:38:30;95278.78;;;6.85;100.00
6829;BME280;17930;48.592;8.868;2022-09-29T00:40:57;95273.50;;;6.90;100.00
6829;BME280;17930;48.592;8.868;2022-09-29T00:43:49;95274.47;;;6.94;100.00
6829;BME280;17930;48.592;8.868;2022-09-29T00:46:18;95268.81;;;6.92;100.00
6829;BME280;17930;48.592;8.868;2022-09-29T00:48:48;95270.63;;;6.92;100.00
6829;BME280;17930;48.592;8.868;2022-09-29T00:51:16;95265.38;;;6.97;100.00
6829;BME280;17930;48.592;8.868;2022-09-29T00:53:45;95260.66;;;6.99;100.00
6829;BME280;17930;48.592;8.868;2022-09-29T00:56:14;95257.59;;;6.97;100.00
6829;BME280;17930;48.592;8.868;2022-09-29T00:58:47;95250.88;;;6.96;100.00
6829;BME280;17930;48.592;8.868;2022-09-29T01:01:19;95249.31;;;6.95;100.00
6829;BME280;17930;48.592;8.868;2022-09-29T01:03:46;95250.09;;;6.95;100.00
6829;BME280;17930;48.592;8.868;2022-09-29T01:06:19;95253.16;;;6.97;100.00
6829;BME280;17930;48.592;8.868;2022-09-29T01:08:50;95253.38;;;7.01;100.00
6829;BME280;17930;48.592;8.868;2022-09-29T01:11:19;95248.84;;;7.06;100.00
6829;BME280;17930;48.592;8.868;2022-09-29T01:13:48;95246.47;;;7.10;100.00
6829;BME280;17930;48.592;8.868;2022-09-29T01:16:16;95245.78;;;7.17;100.00
6829;BME280;17930;48.592;8.868;2022-09-29T01:18:43;95240.06;;;7.20;100.00
6829;BME280;17930;48.592;8.868;2022-09-29T01:21:16;95243.41;;;7.21;100.00
6829;BME280;17930;48.592;8.868;2022-09-29T01:24:15;95240.91;;;7.16;100.00
6829;BME280;17930;48.592;8.868;2022-09-29T01:27:02;95241.88;;;7.20;100.00
6829;BME280;17930;48.592;8.868;2022-09-29T01:30:05;95244.66;;;7.23;100.00
6829;BME280;17930;48.592;8.868;2022-09-29T01:32:57;95254.16;;;7.28;100.00
6829;BME280;17930;48.592;8.868;2022-09-29T01:35:28;95252.63;;;7.27;100.00
6829;BME280;17930;48.592;8.868;2022-09-29T01:38:13;95251.75;;;7.31;100.00
6829;BME280;17930;48.592;8.868;2022-09-29T01:40:47;95251.88;;;7.26;100.00
6829;BME280;17930;48.592;8.868;2022-09-29T01:43:19;95249.75;;;7.42;100.00
6829;BME280;17930;48.592;8.868;2022-09-29T01:45:50;95250.31;;;7.52;100.00
6829;BME280;17930;48.592;8.868;2022-09-29T01:48:24;95248.81;;;7.38;100.00
6829;BME280;17930;48.592;8.868;2022-09-29T01:50:55;95247.66;;;7.30;100.00
6829;BME280;17930;48.592;8.868;2022-09-29T01:53:28;95254.94;;;7.42;100.00
6829;BME280;17930;48.592;8.868;2022-09-29T01:55:59;95258.03;;;7.57;100.00
6829;BME280;17930;48.592;8.868;2022-09-29T01:58:31;95256.69;;;7.46;100.00
6829;BME280;17930;48.592;8.868;2022-09-29T02:01:04;95256.84;;;7.50;100.00
6829;BME280;17930;48.592;8.868;2022-09-29T02:03:36;95258.00;;;7.44;100.00
6829;BME280;17930;48.592;8.868;2022-09-29T02:06:09;95256.88;;;7.36;100.00
6829;BME280;17930;48.592;8.868;2022-09-29T02:08:42;95255.91;;;7.32;100.00
6829;BME280;17930;48.592;8.868;2022-09-29T02:11:11;95250.81;;;7.27;100.00
6829;BME280;17930;48.592;8.868;2022-09-29T02:13:40;95251.09;;;7.26;100.00
6829;BME280;17930;48.592;8.868;2022-09-29T02:16:10;95251.28;;;7.29;100.00
6829;BME280;17930;48.592;8.868;2022-09-29T02:18:44;95254.75;;;7.38;100.00
6829;BME280;17930;48.592;8.868;2022-09-29T02:21:14;95254.34;;;7.58;100.00
6829;BME280;17930;48.592;8.868;2022-09-29T02:23:41;95259.75;;;7.48;100.00
6829;BME280;17930;48.592;8.868;2022-09-29T02:26:08;95262.72;;;7.42;100.00
6829;BME280;17930;48.592;8.868;2022-09-29T02:28:36;95256.75;;;7.41;100.00
6829;BME280;17930;48.592;8.868;2022-09-29T02:31:04;95256.75;;;7.41;100.00
6829;BME280;17930;48.592;8.868;2022-09-29T02:33:33;95252.66;;;7.40;100.00
6829;BME280;17930;48.592;8.868;2022-09-29T02:36:11;95260.72;;;7.39;100.00
6829;BME280;17930;48.592;8.868;2022-09-29T02:38:42;95254.84;;;7.33;100.00
6829;BME280;17930;48.592;8.868;2022-09-29T02:41:24;95251.19;;;7.34;100.00
6829;BME280;17930;48.592;8.868;2022-09-29T02:44:06;95253.59;;;7.31;100.00
6829;BME280;17930;48.592;8.868;2022-09-29T02:46:46;95248.69;;;7.29;100.00
6829;BME280;17930;48.592;8.868;2022-09-29T02:49:31;95246.47;;;7.50;100.00
6829;BME280;17930;48.592;8.868;2022-09-29T02:52:04;95239.56;;;7.45;100.00
6829;BME280;17930;48.592;8.868;2022-09-29T02:54:47;95236.22;;;7.45;100.00
6829;BME280;17930;48.592;8.868;2022-09-29T02:57:19;95236.00;;;7.41;100.00
6829;BME280;17930;48.592;8.868;2022-09-29T02:59:56;95234.78;;;7.39;100.00
6829;BME280;17930;48.592;8.868;2022-09-29T03:02:25;95231.50;;;7.33;100.00
6829;BME280;17930;48.592;8.868;2022-09-29T03:04:52;95230.63;;;7.24;100.00
6829;BME280;17930;48.592;8.868;2022-09-29T03:07:20;95223.03;;;7.14;100.00
6829;BME280;17930;48.592;8.868;2022-09-29T03:09:47;95228.41;;;7.05;100.00
6829;BME280;17930;48.592;8.868;2022-09-29T03:12:14;95223.41;;;6.95;100.00
6829;BME280;17930;48.592;8.868;2022-09-29T03:14:42;95217.81;;;6.88;100.00
6829;BME280;17930;48.592;8.868;2022-09-29T03:17:09;95225.50;;;6.79;100.00
6829;BME280;17930;48.592;8.868;2022-09-29T03:19:36;95215.69;;;6.63;100.00
6829;BME280;17930;48.592;8.868;2022-09-29T03:22:03;95222.63;;;6.49;100.00
6829;BME280;17930;48.592;8.868;2022-09-29T03:24:31;95214.47;;;6.42;100.00
6829;BME280;17930;48.592;8.868;2022-09-29T03:26:57;95208.66;;;6.50;100.00
6829;BME280;17930;48.592;8.868;2022-09-29T03:29:24;95222.44;;;6.46;100.00
6829;BME280;17930;48.592;8.868;2022-09-29T03:31:51;95217.91;;;6.38;100.00
6829;BME280;17930;48.592;8.868;2022-09-29T03:34:17;95216.91;;;6.34;100.00
6829;BME280;17930;48.592;8.868;2022-09-29T03:36:44;95216.88;;;6.20;100.00
6829;BME280;17930;48.592;8.868;2022-09-29T03:39:11;95215.28;;;6.06;100.00
6829;BME280;17930;48.592;8.868;2022-09-29T03:41:39;95220.03;;;5.99;100.00
6829;BME280;17930;48.592;8.868;2022-09-29T03:44:06;95221.41;;;5.92;100.00
6829;BME280;17930;48.592;8.868;2022-09-29T03:46:32;95214.59;;;5.82;100.00
6829;BME280;17930;48.592;8.868;2022-09-29T03:48:59;95220.94;;;5.90;100.00
6829;BME280;17930;48.592;8.868;2022-09-29T03:51:26;95211.63;;;5.89;100.00
6829;BME280;17930;48.592;8.868;2022-09-29T03:53:53;95216.09;;;5.83;100.00
6829;BME280;17930;48.592;8.868;2022-09-29T03:56:20;95216.47;;;5.77;100.00
6829;BME280;17930;48.592;8.868;2022-09-29T03:58:48;95220.19;;;5.66;100.00
6829;BME280;17930;48.592;8.868;2022-09-29T04:01:15;95219.56;;;5.56;100.00
6829;BME280;17930;48.592;8.868;2022-09-29T04:03:41;95223.00;;;5.51;100.00
6829;BME280;17930;48.592;8.868;2022-09-29T04:06:08;95223.66;;;5.38;100.00
6829;BME280;17930;48.592;8.868;2022-09-29T04:08:35;95218.63;;;5.28;100.00
6829;BME280;17930;48.592;8.868;2022-09-29T04:11:02;95221.69;;;5.30;100.00
6829;BME280;17930;48.592;8.868;2022-09-29T04:13:29;95224.31;;;5.25;100.00
6829;BME280;17930;48.592;8.868;2022-09-29T04:15:57;95224.94;;;5.17;100.00
6829;BME280;17930;48.592;8.868;2022-09-29T04:18:25;95222.34;;;5.17;100.00
6829;BME280;17930;48.592;8.868;2022-09-29T04:20:51;95227.28;;;5.14;100.00
6829;BME280;17930;48.592;8.868;2022-09-29T04:23:19;95221.41;;;5.08;100.00
6829;BME280;17930;48.592;8.868;2022-09-29T04:25:46;95228.09;;;5.09;100.00
6829;BME280;17930;48.592;8.868;2022-09-29T04:28:12;95230.59;;;5.19;100.00
6829;BME280;17930;48.592;8.868;2022-09-29T04:30:39;95227.59;;;5.31;100.00
6829;BME280;17930;48.592;8.868;2022-09-29T04:33:07;95228.16;;;5.51;100.00
6829;BME280;17930;48.592;8.868;2022-09-29T04:35:34;95233.31;;;5.51;100.00
6829;BME280;17930;48.592;8.868;2022-09-29T04:38:01;95235.41;;;5.49;100.00
6829;BME280;17930;48.592;8.868;2022-09-29T04:40:27;95240.00;;;5.52;100.00
6829;BME280;17930;48.592;8.868;2022-09-29T04:42:54;95235.97;;;5.46;100.00
6829;BME280;17930;48.592;8.868;2022-09-29T04:45:21;95234.41;;;5.45;100.00
6829;BME280;17930;48.592;8.868;2022-09-29T04:47:48;95240.13;;;5.42;100.00
6829;BME280;17930;48.592;8.868;2022-09-29T04:50:16;95235.53;;;5.39;100.00
6829;BME280;17930;48.592;8.868;2022-09-29T04:52:43;95231.03;;;5.26;100.00
6829;BME280;17930;48.592;8.868;2022-09-29T04:55:10;95233.88;;;5.25;100.00
6829;BME280;17930;48.592;8.868;2022-09-29T04:57:37;95231.91;;;5.40;100.00
6829;BME280;17930;48.592;8.868;2022-09-29T05:00:05;95240.38;;;5.46;100.00
6829;BME280;17930;48.592;8.868;2022-09-29T05:02:32;95240.84;;;5.48;100.00
6829;BME280;17930;48.592;8.868;2022-09-29T05:04:59;95238.81;;;5.45;100.00
6829;BME280;17930;48.592;8.868;2022-09-29T05:07:27;95239.50;;;5.55;100.00
6829;BME280;17930;48.592;8.868;2022-09-29T05:09:54;95240.88;;;5.66;100.00
6829;BME280;17930;48.592;8.868;2022-09-29T05:12:21;95242.81;;;5.79;100.00
6829;BME280;17930;48.592;8.868;2022-09-29T05:14:48;95230.97;;;5.73;100.00
6829;BME280;17930;48.592;8.868;2022-09-29T05:17:15;95223.91;;;5.60;100.00
6829;BME280;17930;48.592;8.868;2022-09-29T05:19:41;95224.19;;;5.58;100.00
6829;BME280;17930;48.592;8.868;2022-09-29T05:22:08;95235.28;;;5.59;100.00
6829;BME280;17930;48.592;8.868;2022-09-29T05:24:36;95240.31;;;5.69;100.00
6829;BME280;17930;48.592;8.868;2022-09-29T05:27:03;95241.28;;;5.78;100.00
6829;BME280;17930;48.592;8.868;2022-09-29T05:29:29;95242.34;;;5.77;100.00
6829;BME280;17930;48.592;8.868;2022-09-29T05:31:56;95244.91;;;5.77;100.00
6829;BME280;17930;48.592;8.868;2022-09-29T05:34:23;95244.94;;;5.72;100.00
6829;BME280;17930;48.592;8.868;2022-09-29T05:36:50;95255.09;;;5.68;100.00
6829;BME280;17930;48.592;8.868;2022-09-29T05:39:16;95263.56;;;5.74;100.00
6829;BME280;17930;48.592;8.868;2022-09-29T05:41:46;95266.09;;;5.79;100.00
6829;BME280;17930;48.592;8.868;2022-09-29T05:44:13;95256.16;;;5.86;100.00
6829;BME280;17930;48.592;8.868;2022-09-29T05:46:41;95256.69;;;5.88;100.00
6829;BME280;17930;48.592;8.868;2022-09-29T05:49:07;95252.53;;;5.87;100.00
6829;BME280;17930;48.592;8.868;2022-09-29T05:51:34;95252.47;;;5.92;100.00
6829;BME280;17930;48.592;8.868;2022-09-29T05:54:01;95252.97;;;5.94;100.00
6829;BME280;17930;48.592;8.868;2022-09-29T05:56:28;95254.16;;;6.01;100.00
6829;BME280;17930;48.592;8.868;2022-09-29T05:58:56;95248.09;;;6.11;100.00
6829;BME280;17930;48.592;8.868;2022-09-29T06:01:25;95254.63;;;6.21;100.00
6829;BME280;17930;48.592;8.868;2022-09-29T06:03:52;95254.44;;;6.36;100.00
6829;BME280;17930;48.592;8.868;2022-09-29T06:06:21;95256.66;;;6.43;100.00
6829;BME280;17930;48.592;8.868;2022-09-29T06:08:48;95259.44;;;6.46;100.00
6829;BME280;17930;48.592;8.868;2022-09-29T06:11:17;95261.88;;;6.56;100.00
6829;BME280;17930;48.592;8.868;2022-09-29T06:13:45;95261.72;;;6.66;100.00
6829;BME280;17930;48.592;8.868;2022-09-29T06:16:14;95269.97;;;6.68;100.00
6829;BME280;17930;48.592;8.868;2022-09-29T06:18:41;95270.94;;;6.72;100.00
6829;BME280;17930;48.592;8.868;2022-09-29T06:21:10;95273.47;;;6.77;100.00
6829;BME280;17930;48.592;8.868;2022-09-29T06:23:37;95278.00;;;6.85;100.00
6829;BME280;17930;48.592;8.868;2022-09-29T06:26:06;95284.06;;;6.94;100.00
6829;BME280;17930;48.592;8.868;2022-09-29T06:28:33;95275.22;;;6.95;100.00
6829;BME280;17930;48.592;8.868;2022-09-29T06:31:00;95282.19;;;6.99;100.00
6829;BME280;17930;48.592;8.868;2022-09-29T06:33:32;95280.84;;;7.15;100.00
6829;BME280;17930;48.592;8.868;2022-09-29T06:36:01;95275.03;;;7.36;100.00
6829;BME280;17930;48.592;8.868;2022-09-29T06:38:47;95278.97;;;7.47;100.00
6829;BME280;17930;48.592;8.868;2022-09-29T06:41:14;95284.53;;;7.54;100.00
6829;BME280;17930;48.592;8.868;2022-09-29T06:43:40;95277.50;;;7.68;100.00
6829;BME280;17930;48.592;8.868;2022-09-29T06:46:07;95268.00;;;7.77;100.00
6829;BME280;17930;48.592;8.868;2022-09-29T06:48:35;95280.78;;;7.87;100.00
6829;BME280;17930;48.592;8.868;2022-09-29T06:51:05;95288.91;;;7.94;100.00
6829;BME280;17930;48.592;8.868;2022-09-29T06:53:32;95278.94;;;7.74;100.00
6829;BME280;17930;48.592;8.868;2022-09-29T06:55:59;95279.91;;;7.78;100.00
6829;BME280;17930;48.592;8.868;2022-09-29T06:58:27;95278.16;;;8.00;100.00
6829;BME280;17930;48.592;8.868;2022-09-29T07:00:54;95271.75;;;8.33;100.00
6829;BME280;17930;48.592;8.868;2022-09-29T07:03:21;95277.84;;;8.50;100.00
6829;BME280;17930;48.592;8.868;2022-09-29T07:05:49;95281.09;;;8.56;100.00
6829;BME280;17930;48.592;8.868;2022-09-29T07:08:15;95281.28;;;8.59;100.00
6829;BME280;17930;48.592;8.868;2022-09-29T07:10:42;95281.38;;;8.32;100.00
6829;BME280;17930;48.592;8.868;2022-09-29T07:13:11;95288.59;;;8.35;100.00
6829;BME280;17930;48.592;8.868;2022-09-29T07:15:38;95287.91;;;8.43;100.00
6829;BME280;17930;48.592;8.868;2022-09-29T07:18:04;95286.00;;;8.35;100.00
6829;BME280;17930;48.592;8.868;2022-09-29T07:20:31;95279.47;;;8.24;100.00
6829;BME280;17930;48.592;8.868;2022-09-29T07:22:59;95279.47;;;8.24;100.00
6829;BME280;17930;48.592;8.868;2022-09-29T07:25:26;95280.78;;;8.35;100.00
6829;BME280;17930;48.592;8.868;2022-09-29T07:27:53;95283.09;;;8.37;100.00
6829;BME280;17930;48.592;8.868;2022-09-29T07:30:19;95277.84;;;8.50;100.00
6829;BME280;17930;48.592;8.868;2022-09-29T07:32:46;95280.69;;;8.62;100.00
6829;BME280;17930;48.592;8.868;2022-09-29T07:35:13;95289.09;;;8.81;100.00
6829;BME280;17930;48.592;8.868;2022-09-29T07:37:39;95285.66;;;8.94;100.00
6829;BME280;17930;48.592;8.868;2022-09-29T07:40:08;95281.75;;;9.05;100.00
6829;BME280;17930;48.592;8.868;2022-09-29T07:42:35;95279.25;;;9.21;100.00
6829;BME280;17930;48.592;8.868;2022-09-29T07:45:02;95281.94;;;9.17;100.00
6829;BME280;17930;48.592;8.868;2022-09-29T07:47:28;95272.56;;;9.37;100.00
6829;BME280;17930;48.592;8.868;2022-09-29T07:49:56;95281.50;;;9.53;100.00
6829;BME280;17930;48.592;8.868;2022-09-29T07:52:22;95278.56;;;9.46;100.00
6829;BME280;17930;48.592;8.868;2022-09-29T07:54:49;95282.66;;;9.69;100.00
6829;BME280;17930;48.592;8.868;2022-09-29T07:57:17;95285.03;;;9.49;100.00
6829;BME280;17930;48.592;8.868;2022-09-29T07:59:44;95294.44;;;9.36;100.00
6829;BME280;17930;48.592;8.868;2022-09-29T08:02:11;95293.47;;;9.54;100.00
6829;BME280;17930;48.592;8.868;2022-09-29T08:04:37;95286.22;;;9.90;100.00
6829;BME280;17930;48.592;8.868;2022-09-29T08:07:04;95293.47;;;10.01;100.00
6829;BME280;17930;48.592;8.868;2022-09-29T08:09:31;95289.38;;;10.09;100.00
6829;BME280;17930;48.592;8.868;2022-09-29T08:11:58;95292.03;;;10.25;100.00
6829;BME280;17930;48.592;8.868;2022-09-29T08:14:26;95289.13;;;10.35;100.00
6829;BME280;17930;48.592;8.868;2022-09-29T08:16:53;95295.09;;;10.44;100.00
6829;BME280;17930;48.592;8.868;2022-09-29T08:19:20;95304.31;;;10.59;100.00
6829;BME280;17930;48.592;8.868;2022-09-29T08:21:46;95306.16;;;10.92;100.00
6829;BME280;17930;48.592;8.868;2022-09-29T08:24:14;95303.34;;;11.14;100.00
6829;BME280;17930;48.592;8.868;2022-09-29T08:26:42;95303.41;;;11.42;100.00
6829;BME280;17930;48.592;8.868;2022-09-29T08:29:09;95308.56;;;11.76;100.00
6829;BME280;17930;48.592;8.868;2022-09-29T08:31:37;95320.31;;;11.90;100.00
6829;BME280;17930;48.592;8.868;2022-09-29T08:34:05;95331.19;;;12.01;100.00
6829;BME280;17930;48.592;8.868;2022-09-29T08:36:31;95331.56;;;11.91;100.00
6829;BME280;17930;48.592;8.868;2022-09-29T08:38:58;95337.84;;;12.19;100.00
6829;BME280;17930;48.592;8.868;2022-09-29T08:41:32;95337.03;;;12.55;100.00
6829;BME280;17930;48.592;8.868;2022-09-29T08:44:04;95344.81;;;12.43;100.00
6829;BME280;17930;48.592;8.868;2022-09-29T08:46:36;95341.41;;;13.12;100.00
6829;BME280;17930;48.592;8.868;2022-09-29T08:49:09;95338.16;;;13.71;100.00
6829;BME280;17930;48.592;8.868;2022-09-29T08:51:42;95350.41;;;13.79;100.00
6829;BME280;17930;48.592;8.868;2022-09-29T08:54:19;95342.47;;;13.99;100.00
6829;BME280;17930;48.592;8.868;2022-09-29T08:56:47;95337.56;;;14.45;100.00
6829;BME280;17930;48.592;8.868;2022-09-29T08:59:14;95351.34;;;14.19;100.00
6829;BME280;17930;48.592;8.868;2022-09-29T09:01:51;95354.91;;;14.74;100.00
6829;BME280;17930;48.592;8.868;2022-09-29T09:04:45;95355.88;;;16.21;100.00
6829;BME280;17930;48.592;8.868;2022-09-29T09:07:22;95362.59;;;16.83;100.00
6829;BME280;17930;48.592;8.868;2022-09-29T09:10:09;95362.97;;;16.66;100.00
6829;BME280;17930;48.592;8.868;2022-09-29T09:13:01;95373.38;;;15.98;100.00
6829;BME280;17930;48.592;8.868;2022-09-29T09:15:54;95387.59;;;15.39;100.00
6829;BME280;17930;48.592;8.868;2022-09-29T09:21:39;95384.38;;;14.32;100.00
6829;BME280;17930;48.592;8.868;2022-09-29T09:24:16;95384.78;;;14.22;100.00
6829;BME280;17930;48.592;8.868;2022-09-29T09:26:44;95377.38;;;14.35;100.00
6829;BME280;17930;48.592;8.868;2022-09-29T09:29:16;95383.84;;;14.38;100.00
6829;BME280;17930;48.592;8.868;2022-09-29T09:31:48;95376.69;;;14.62;100.00
6829;BME280;17930;48.592;8.868;2022-09-29T09:34:19;95381.72;;;14.67;100.00
6829;BME280;17930;48.592;8.868;2022-09-29T09:36:54;95383.59;;;14.55;100.00
6829;BME280;17930;48.592;8.868;2022-09-29T09:39:27;95380.63;;;14.44;100.00
6829;BME280;17930;48.592;8.868;2022-09-29T09:41:56;95382.56;;;14.95;100.00
6829;BME280;17930;48.592;8.868;2022-09-29T09:44:28;95381.69;;;14.91;100.00
6829;BME280;17930;48.592;8.868;2022-09-29T09:47:01;95379.31;;;15.25;100.00
6829;BME280;17930;48.592;8.868;2022-09-29T09:49:33;95381.47;;;15.35;100.00
6829;BME280;17930;48.592;8.868;2022-09-29T09:52:10;95383.09;;;15.39;100.00
6829;BME280;17930;48.592;8.868;2022-09-29T09:54:40;95387.44;;;15.08;100.00
6829;BME280;17930;48.592;8.868;2022-09-29T09:57:26;95381.41;;;15.08;100.00
6829;BME280;17930;48.592;8.868;2022-09-29T10:00:09;95381.56;;;15.38;100.00
6829;BME280;17930;48.592;8.868;2022-09-29T10:02:42;95374.44;;;15.82;100.00
6829;BME280;17930;48.592;8.868;2022-09-29T10:05:11;95378.50;;;16.37;100.00
6829;BME280;17930;48.592;8.868;2022-09-29T10:07:40;95373.53;;;16.51;100.00
6829;BME280;17930;48.592;8.868;2022-09-29T10:10:15;95383.38;;;16.69;100.00
6829;BME280;17930;48.592;8.868;2022-09-29T10:12:42;95381.72;;;17.14;100.00
6829;BME280;17930;48.592;8.868;2022-09-29T10:15:17;95376.44;;;16.61;100.00
6829;BME280;17930;48.592;8.868;2022-09-29T10:17:49;95383.03;;;16.71;100.00
6829;BME280;17930;48.592;8.868;2022-09-29T10:20:30;95386.34;;;16.52;100.00
6829;BME280;17930;48.592;8.868;2022-09-29T10:23:22;95379.16;;;16.49;100.00
6829;BME280;17930;48.592;8.868;2022-09-29T10:25:52;95383.06;;;17.43;100.00
6829;BME280;17930;48.592;8.868;2022-09-29T10:28:20;95386.13;;;17.63;100.00
6829;BME280;17930;48.592;8.868;2022-09-29T10:30:47;95385.41;;;17.66;100.00
6829;BME280;17930;48.592;8.868;2022-09-29T10:33:16;95385.84;;;17.49;100.00
6829;BME280;17930;48.592;8.868;2022-09-29T10:35:44;95386.63;;;16.97;100.00
6829;BME280;17930;48.592;8.868;2022-09-29T10:38:16;95387.66;;;16.92;100.00
6829;BME280;17930;48.592;8.868;2022-09-29T10:40:55;95389.09;;;16.90;100.00
6829;BME280;17930;48.592;8.868;2022-09-29T10:43:25;95385.09;;;16.62;100.00
6829;BME280;17930;48.592;8.868;2022-09-29T10:45:52;95382.94;;;16.83;100.00
6829;BME280;17930;48.592;8.868;2022-09-29T10:48:23;95379.81;;;16.96;100.00
6829;BME280;17930;48.592;8.868;2022-09-29T10:50:52;95383.44;;;16.88;100.00
6829;BME280;17930;48.592;8.868;2022-09-29T10:53:25;95382.13;;;16.02;100.00
6829;BME280;17930;48.592;8.868;2022-09-29T10:55:58;95388.00;;;16.42;100.00
6829;BME280;17930;48.592;8.868;2022-09-29T10:58:29;95383.56;;;16.45;100.00
6829;BME280;17930;48.592;8.868;2022-09-29T11:01:08;95384.28;;;17.11;100.00
6829;BME280;17930;48.592;8.868;2022-09-29T11:03:37;95380.59;;;18.13;100.00
6829;BME280;17930;48.592;8.868;2022-09-29T11:06:08;95379.88;;;18.86;100.00
6829;BME280;17930;48.592;8.868;2022-09-29T11:08:56;95391.44;;;18.75;100.00
6829;BME280;17930;48.592;8.868;2022-09-29T11:11:27;95395.56;;;17.87;100.00
6829;BME280;17930;48.592;8.868;2022-09-29T11:13:55;95387.84;;;18.16;100.00
6829;BME280;17930;48.592;8.868;2022-09-29T11:16:29;95400.50;;;17.66;100.00
6829;BME280;17930;48.592;8.868;2022-09-29T11:19:00;95399.00;;;17.87;100.00
6829;BME280;17930;48.592;8.868;2022-09-29T11:24:38;95391.72;;;18.22;100.00
6829;BME280;17930;48.592;8.868;2022-09-29T11:27:15;95396.75;;;17.48;100.00
6829;BME280;17930;48.592;8.868;2022-09-29T11:29:50;95394.38;;;17.62;100.00
6829;BME280;17930;48.592;8.868;2022-09-29T11:32:35;95401.25;;;17.66;100.00
6829;BME280;17930;48.592;8.868;2022-09-29T11:35:17;95394.03;;;17.26;100.00
6829;BME280;17930;48.592;8.868;2022-09-29T11:37:59;95397.78;;;17.25;100.00
6829;BME280;17930;48.592;8.868;2022-09-29T11:40:35;95391.66;;;17.40;100.00
6829;BME280;17930;48.592;8.868;2022-09-29T11:43:22;95403.38;;;16.89;100.00
6829;BME280;17930;48.592;8.868;2022-09-29T11:45:56;95396.75;;;17.29;100.00
6829;BME280;17930;48.592;8.868;2022-09-29T11:48:43;95398.75;;;17.36;100.00
6829;BME280;17930;48.592;8.868;2022-09-29T11:51:25;95406.25;;;17.52;100.00
6829;BME280;17930;48.592;8.868;2022-09-29T11:54:13;95404.56;;;17.26;100.00
6829;BME280;17930;48.592;8.868;2022-09-29T11:56:46;95405.38;;;17.11;100.00
6829;BME280;17930;48.592;8.868;2022-09-29T11:59:42;95398.72;;;17.17;100.00
6829;BME280;17930;48.592;8.868;2022-09-29T12:02:27;95405.53;;;17.55;100.00
6829;BME280;17930;48.592;8.868;2022-09-29T12:05:00;95404.53;;;17.07;100.00
6829;BME280;17930;48.592;8.868;2022-09-29T12:07:37;95388.56;;;17.00;100.00
6829;BME280;17930;48.592;8.868;2022-09-29T12:10:23;95391.06;;;17.12;100.00
6829;BME280;17930;48.592;8.868;2022-09-29T12:12:58;95395.13;;;16.41;100.00
6829;BME280;17930;48.592;8.868;2022-09-29T12:15:35;95400.25;;;17.18;100.00
6829;BME280;17930;48.592;8.868;2022-09-29T12:18:12;95386.28;;;17.51;100.00
6829;BME280;17930;48.592;8.868;2022-09-29T12:20:42;95395.53;;;17.83;100.00
6829;BME280;17930;48.592;8.868;2022-09-29T12:23:13;95390.50;;;17.97;100.00
6829;BME280;17930;48.592;8.868;2022-09-29T12:25:50;95380.75;;;18.20;100.00
6829;BME280;17930;48.592;8.868;2022-09-29T12:28:21;95396.97;;;17.81;100.00
6829;BME280;17930;48.592;8.868;2022-09-29T12:30:53;95394.69;;;17.79;100.00
6829;BME280;17930;48.592;8.868;2022-09-29T12:33:22;95388.50;;;18.13;100.00
6829;BME280;17930;48.592;8.868;2022-09-29T12:36:00;95391.09;;;17.87;100.00
6829;BME280;17930;48.592;8.868;2022-09-29T12:38:33;95385.16;;;17.94;100.00
6829;BME280;17930;48.592;8.868;2022-09-29T12:41:10;95399.06;;;18.13;100.00
6829;BME280;17930;48.592;8.868;2022-09-29T12:43:41;95398.91;;;18.02;100.00
6829;BME280;17930;48.592;8.868;2022-09-29T12:46:15;95398.53;;;17.25;100.00
6829;BME280;17930;48.592;8.868;2022-09-29T12:48:50;95401.59;;;17.12;100.00
6829;BME280;17930;48.592;8.868;2022-09-29T12:51:26;95398.44;;;17.22;100.00
6829;BME280;17930;48.592;8.868;2022-09-29T12:54:05;95393.00;;;16.96;100.00
6829;BME280;17930;48.592;8.868;2022-09-29T12:56:37;95384.84;;;17.01;100.00
6829;BME280;17930;48.592;8.868;2022-09-29T12:59:09;95396.25;;;17.61;100.00
6829;BME280;17930;48.592;8.868;2022-09-29T13:01:40;95394.16;;;17.70;100.00
6829;BME280;17930;48.592;8.868;2022-09-29T13:04:31;95401.03;;;17.03;100.00
6829;BME280;17930;48.592;8.868;2022-09-29T13:07:39;95400.25;;;17.18;100.00
6829;BME280;17930;48.592;8.868;2022-09-29T13:10:36;95400.53;;;17.32;100.00
6829;BME280;17930;48.592;8.868;2022-09-29T13:13:34;95403.22;;;17.92;100.00
6829;BME280;17930;48.592;8.868;2022-09-29T13:16:15;95398.34;;;17.71;100.00
6829;BME280;17930;48.592;8.868;2022-09-29T13:19:08;95393.84;;;17.53;100.00
6829;BME280;17930;48.592;8.868;2022-09-29T13:21:43;95396.81;;;17.33;100.00
6829;BME280;17930;48.592;8.868;2022-09-29T13:24:28;95394.03;;;17.26;100.00
6829;BME280;17930;48.592;8.868;2022-09-29T13:27:22;95393.34;;;17.47;100.00
6829;BME280;17930;48.592;8.868;2022-09-29T13:29:54;95390.97;;;17.24;100.00
6829;BME280;17930;48.592;8.868;2022-09-29T13:32:22;95395.03;;;16.38;100.00
6829;BME280;17930;48.592;8.868;2022-09-29T13:34:54;95392.72;;;16.05;100.00
6829;BME280;17930;48.592;8.868;2022-09-29T13:37:24;95399.63;;;16.25;100.00